Home   Weather   Russia   Bratsk   Past weeks
Flag for Russia

Past Weather in Bratsk, Russia — Yesterday and Last 2 Weeks

Currently: 54 °F. Clear. (Weather station: Bratsk / Irkutsk, Russia). See more current weather

Past Weather in Bratsk — Graph

°F

Bratsk Temperature Yesterday

Maximum temperature yesterday: 66 °F (at 5:30 pm)
Minimum temperature yesterday: 41 °F (at 5:00 am)
Average temperature yesterday: 55 °F

High & Low Weather Summary for the Past Weeks

 TemperatureHumidityPressure
High82 °F (Jun 3, 3:00 pm)100% (May 31, 12:00 am)30.12 "Hg (May 31, 12:00 am)
Low32 °F (May 30, 4:30 am)15% (Jun 3, 1:30 pm)29.36 "Hg (Jun 5, 3:30 pm)
Average56 °F54%29.84 "Hg
* Reported May 29 6:00 am — Jun 13 6:00 am, Bratsk. Weather by CustomWeather, © 2021

Note: Actual official high and low records may vary slightly from our data, if they occured in-between our weather recording intervals... More about our weather records

Bratsk Weather History for the Previous 24 Hours

Scroll right to see more
 ConditionsComfort  
Time TempWeatherWind HumidityBarometerVisibility
6:00 am
Sun, Jun 13
46 °FClear.3 mph57%29.80 "HgN/A
5:30 am45 °FSunny.3 mph61%29.80 "HgN/A
5:00 am45 °FClear.1 mph61%29.80 "HgN/A
4:30 am46 °FClear.3 mph57%29.83 "HgN/A
4:00 am46 °FClear.6 mph57%29.83 "HgN/A
3:30 am48 °FCool.1 mph54%29.83 "HgN/A
3:00 am50 °FCool.No wind50%29.83 "HgN/A
2:30 am50 °FClear.1 mph47%29.83 "HgN/A
2:00 am52 °FCool.3 mph44%29.83 "HgN/A
1:30 am52 °FClear.6 mph47%29.83 "HgN/A
1:00 am52 °FClear.3 mph44%29.83 "HgN/A
12:30 am52 °FClear.3 mph44%29.83 "HgN/A
12:00 am54 °FClear.3 mph38%29.83 "HgN/A
11:30 pm
Sat, Jun 12
55 °FClear.3 mph36%29.83 "HgN/A
11:00 pm55 °FSunny.6 mph38%29.86 "HgN/A
10:30 pm57 °FSunny.3 mph39%29.86 "HgN/A
10:00 pm57 °FClear.6 mph41%29.86 "HgN/A
9:30 pm61 °FClear.1 mph34%29.86 "HgN/A
9:00 pm63 °FClear.1 mph30%29.86 "HgN/A
8:30 pm63 °FClear.1 mph30%29.86 "HgN/A
8:00 pm64 °FClear.1 mph28%29.86 "HgN/A
7:30 pm63 °FClear.6 mph32%29.86 "HgN/A
7:00 pm64 °FClear.3 mph26%29.86 "HgN/A
6:30 pm64 °FClear.3 mph26%29.86 "HgN/A
6:00 pm64 °FClear.6 mph26%29.86 "HgN/A
5:30 pm66 °FClear.1 mph26%29.86 "HgN/A
5:00 pm64 °FClear.3 mph28%29.86 "HgN/A
4:30 pm64 °FClear.6 mph28%29.89 "HgN/A
4:00 pm64 °FClear.3 mph30%29.89 "HgN/A
3:30 pm64 °FClear.3 mph28%29.92 "HgN/A
3:00 pm63 °FClear.6 mph27%29.92 "HgN/A
2:30 pm64 °FClear.3 mph30%29.92 "HgN/A
2:00 pm63 °FClear.3 mph30%29.92 "HgN/A
1:30 pm63 °FClear.1 mph32%29.95 "HgN/A
1:00 pm61 °FClear.1 mph31%29.95 "HgN/A
12:30 pm61 °FClear.3 mph29%29.95 "HgN/A
12:00 pm57 °FClear.3 mph33%29.98 "HgN/A
11:30 am59 °FClear.6 mph31%29.98 "HgN/A
11:00 am59 °FClear.6 mph34%29.98 "HgN/A
10:30 am57 °FClear.6 mph33%29.98 "HgN/A
10:00 am57 °FClear.6 mph39%29.98 "HgN/A
9:30 am55 °FClear.6 mph38%30.01 "HgN/A
9:00 am55 °FClear.6 mph38%30.01 "HgN/A
8:30 am54 °FClear.3 mph41%30.01 "HgN/A
8:00 am52 °FClear.3 mph44%30.01 "HgN/A
7:30 am52 °FClear.3 mph47%30.01 "HgN/A
7:00 am50 °FClear.3 mph50%30.01 "HgN/A
Weather by CustomWeather, © 2021

See weather overview